sensor_id;sensor_type;location;lat;lon;timestamp;P1;durP1;ratioP1;P2;durP2;ratioP2
74791;SDS011;63319;46.046;17.802;2023-05-20T00:02:02;5.30;;;2.40;;
74791;SDS011;63319;46.046;17.802;2023-05-20T00:05:05;4.68;;;2.65;;
74791;SDS011;63319;46.046;17.802;2023-05-20T00:08:09;3.78;;;1.90;;
74791;SDS011;63319;46.046;17.802;2023-05-20T00:11:12;5.38;;;2.40;;
74791;SDS011;63319;46.046;17.802;2023-05-20T00:14:15;4.10;;;2.10;;
74791;SDS011;63319;46.046;17.802;2023-05-20T00:17:18;4.53;;;2.27;;
74791;SDS011;63319;46.046;17.802;2023-05-20T00:20:23;3.90;;;2.20;;
74791;SDS011;63319;46.046;17.802;2023-05-20T00:23:26;4.93;;;2.28;;
74791;SDS011;63319;46.046;17.802;2023-05-20T00:26:29;4.70;;;1.88;;
74791;SDS011;63319;46.046;17.802;2023-05-20T00:29:33;4.80;;;2.37;;
74791;SDS011;63319;46.046;17.802;2023-05-20T00:32:35;4.93;;;2.20;;
74791;SDS011;63319;46.046;17.802;2023-05-20T00:35:38;4.15;;;2.30;;
74791;SDS011;63319;46.046;17.802;2023-05-20T00:38:41;4.65;;;2.00;;
74791;SDS011;63319;46.046;17.802;2023-05-20T00:41:44;4.35;;;2.33;;
74791;SDS011;63319;46.046;17.802;2023-05-20T00:44:47;4.80;;;2.40;;
74791;SDS011;63319;46.046;17.802;2023-05-20T00:47:50;4.20;;;1.90;;
74791;SDS011;63319;46.046;17.802;2023-05-20T00:50:53;4.57;;;2.53;;
74791;SDS011;63319;46.046;17.802;2023-05-20T00:53:56;4.40;;;2.03;;
74791;SDS011;63319;46.046;17.802;2023-05-20T00:56:59;4.53;;;2.10;;
74791;SDS011;63319;46.046;17.802;2023-05-20T01:00:04;4.63;;;2.20;;
74791;SDS011;63319;46.046;17.802;2023-05-20T01:03:09;4.13;;;2.10;;
74791;SDS011;63319;46.046;17.802;2023-05-20T01:06:13;4.15;;;1.95;;
74791;SDS011;63319;46.046;17.802;2023-05-20T01:09:16;3.97;;;1.70;;
74791;SDS011;63319;46.046;17.802;2023-05-20T01:12:24;4.28;;;2.22;;
74791;SDS011;63319;46.046;17.802;2023-05-20T01:15:32;4.03;;;1.80;;
74791;SDS011;63319;46.046;17.802;2023-05-20T01:18:36;4.30;;;2.07;;
74791;SDS011;63319;46.046;17.802;2023-05-20T01:21:42;4.75;;;2.08;;
74791;SDS011;63319;46.046;17.802;2023-05-20T01:24:46;4.25;;;2.08;;
74791;SDS011;63319;46.046;17.802;2023-05-20T01:27:49;4.20;;;2.25;;
74791;SDS011;63319;46.046;17.802;2023-05-20T01:30:54;5.00;;;2.00;;
74791;SDS011;63319;46.046;17.802;2023-05-20T01:34:01;3.87;;;1.90;;
74791;SDS011;63319;46.046;17.802;2023-05-20T01:37:05;3.72;;;2.13;;
74791;SDS011;63319;46.046;17.802;2023-05-20T01:40:10;4.03;;;1.92;;
74791;SDS011;63319;46.046;17.802;2023-05-20T01:43:15;5.20;;;2.30;;
74791;SDS011;63319;46.046;17.802;2023-05-20T01:46:19;3.70;;;2.00;;
74791;SDS011;63319;46.046;17.802;2023-05-20T01:49:23;4.03;;;1.90;;
74791;SDS011;63319;46.046;17.802;2023-05-20T01:52:25;4.63;;;2.40;;
74791;SDS011;63319;46.046;17.802;2023-05-20T01:55:28;4.07;;;1.90;;
74791;SDS011;63319;46.046;17.802;2023-05-20T01:58:31;3.85;;;1.95;;
74791;SDS011;63319;46.046;17.802;2023-05-20T02:01:34;4.77;;;2.07;;
74791;SDS011;63319;46.046;17.802;2023-05-20T02:04:37;3.77;;;2.07;;
74791;SDS011;63319;46.046;17.802;2023-05-20T02:07:40;4.65;;;2.10;;
74791;SDS011;63319;46.046;17.802;2023-05-20T02:10:43;3.55;;;1.88;;
74791;SDS011;63319;46.046;17.802;2023-05-20T02:13:49;3.65;;;1.92;;
74791;SDS011;63319;46.046;17.802;2023-05-20T02:16:52;4.17;;;2.03;;
74791;SDS011;63319;46.046;17.802;2023-05-20T02:19:55;3.33;;;1.70;;
74791;SDS011;63319;46.046;17.802;2023-05-20T02:22:58;3.80;;;1.90;;
74791;SDS011;63319;46.046;17.802;2023-05-20T02:26:01;4.18;;;1.75;;
74791;SDS011;63319;46.046;17.802;2023-05-20T02:29:04;4.38;;;2.17;;
74791;SDS011;63319;46.046;17.802;2023-05-20T02:32:07;3.47;;;1.93;;
74791;SDS011;63319;46.046;17.802;2023-05-20T02:35:10;3.63;;;1.70;;
74791;SDS011;63319;46.046;17.802;2023-05-20T02:38:13;4.53;;;1.90;;
74791;SDS011;63319;46.046;17.802;2023-05-20T02:41:16;3.85;;;1.98;;
74791;SDS011;63319;46.046;17.802;2023-05-20T02:44:21;4.70;;;1.90;;
74791;SDS011;63319;46.046;17.802;2023-05-20T02:47:24;3.87;;;2.00;;
74791;SDS011;63319;46.046;17.802;2023-05-20T02:50:30;4.60;;;2.20;;
74791;SDS011;63319;46.046;17.802;2023-05-20T02:53:33;4.43;;;2.05;;
74791;SDS011;63319;46.046;17.802;2023-05-20T02:56:35;3.70;;;1.70;;
74791;SDS011;63319;46.046;17.802;2023-05-20T02:59:38;3.58;;;1.95;;
74791;SDS011;63319;46.046;17.802;2023-05-20T03:02:50;3.00;;;1.73;;
74791;SDS011;63319;46.046;17.802;2023-05-20T03:05:53;3.67;;;1.90;;
74791;SDS011;63319;46.046;17.802;2023-05-20T03:08:58;4.07;;;2.08;;
74791;SDS011;63319;46.046;17.802;2023-05-20T03:12:01;3.88;;;2.05;;
74791;SDS011;63319;46.046;17.802;2023-05-20T03:15:05;3.58;;;1.88;;
74791;SDS011;63319;46.046;17.802;2023-05-20T03:18:09;3.53;;;2.03;;
74791;SDS011;63319;46.046;17.802;2023-05-20T03:21:13;3.27;;;2.00;;
74791;SDS011;63319;46.046;17.802;2023-05-20T03:24:17;4.15;;;2.20;;
74791;SDS011;63319;46.046;17.802;2023-05-20T03:27:31;3.47;;;1.80;;
74791;SDS011;63319;46.046;17.802;2023-05-20T03:30:34;4.10;;;2.13;;
74791;SDS011;63319;46.046;17.802;2023-05-20T03:33:37;3.37;;;1.90;;
74791;SDS011;63319;46.046;17.802;2023-05-20T03:36:40;4.60;;;2.03;;
74791;SDS011;63319;46.046;17.802;2023-05-20T03:39:43;3.88;;;1.67;;
74791;SDS011;63319;46.046;17.802;2023-05-20T03:42:46;4.38;;;2.00;;
74791;SDS011;63319;46.046;17.802;2023-05-20T03:45:49;3.55;;;1.60;;
74791;SDS011;63319;46.046;17.802;2023-05-20T03:48:52;3.80;;;2.00;;
74791;SDS011;63319;46.046;17.802;2023-05-20T03:51:54;4.20;;;2.10;;
74791;SDS011;63319;46.046;17.802;2023-05-20T03:54:57;3.97;;;1.95;;
74791;SDS011;63319;46.046;17.802;2023-05-20T03:58:00;4.05;;;2.13;;
74791;SDS011;63319;46.046;17.802;2023-05-20T04:01:05;4.43;;;2.15;;
74791;SDS011;63319;46.046;17.802;2023-05-20T04:04:10;3.33;;;1.93;;
74791;SDS011;63319;46.046;17.802;2023-05-20T04:07:12;3.37;;;1.93;;
74791;SDS011;63319;46.046;17.802;2023-05-20T04:10:17;3.47;;;2.10;;
74791;SDS011;63319;46.046;17.802;2023-05-20T04:13:21;4.70;;;2.20;;
74791;SDS011;63319;46.046;17.802;2023-05-20T04:16:26;3.63;;;2.30;;
74791;SDS011;63319;46.046;17.802;2023-05-20T04:19:31;3.47;;;1.80;;
74791;SDS011;63319;46.046;17.802;2023-05-20T04:22:33;4.40;;;1.90;;
74791;SDS011;63319;46.046;17.802;2023-05-20T04:25:36;4.53;;;2.30;;
74791;SDS011;63319;46.046;17.802;2023-05-20T04:28:40;4.43;;;2.15;;
74791;SDS011;63319;46.046;17.802;2023-05-20T04:31:44;3.97;;;2.08;;
74791;SDS011;63319;46.046;17.802;2023-05-20T04:34:48;4.20;;;1.80;;
74791;SDS011;63319;46.046;17.802;2023-05-20T04:37:52;3.67;;;2.00;;
74791;SDS011;63319;46.046;17.802;2023-05-20T04:41:00;3.95;;;2.20;;
74791;SDS011;63319;46.046;17.802;2023-05-20T04:44:03;3.50;;;1.73;;
74791;SDS011;63319;46.046;17.802;2023-05-20T04:47:13;4.50;;;2.30;;
74791;SDS011;63319;46.046;17.802;2023-05-20T04:50:16;3.83;;;2.10;;
74791;SDS011;63319;46.046;17.802;2023-05-20T04:53:19;4.33;;;2.30;;
74791;SDS011;63319;46.046;17.802;2023-05-20T04:56:28;3.40;;;1.80;;
74791;SDS011;63319;46.046;17.802;2023-05-20T04:59:31;3.95;;;1.95;;
74791;SDS011;63319;46.046;17.802;2023-05-20T05:02:34;3.53;;;1.70;;
74791;SDS011;63319;46.046;17.802;2023-05-20T05:05:38;4.00;;;2.17;;
74791;SDS011;63319;46.046;17.802;2023-05-20T05:08:41;3.40;;;1.83;;
74791;SDS011;63319;46.046;17.802;2023-05-20T05:11:44;3.55;;;1.65;;
74791;SDS011;63319;46.046;17.802;2023-05-20T05:14:47;3.45;;;1.83;;
74791;SDS011;63319;46.046;17.802;2023-05-20T05:17:50;4.43;;;2.22;;
74791;SDS011;63319;46.046;17.802;2023-05-20T05:21:02;4.07;;;1.87;;
74791;SDS011;63319;46.046;17.802;2023-05-20T05:24:08;3.47;;;1.70;;
74791;SDS011;63319;46.046;17.802;2023-05-20T05:27:11;3.55;;;2.00;;
74791;SDS011;63319;46.046;17.802;2023-05-20T05:30:14;3.03;;;1.70;;
74791;SDS011;63319;46.046;17.802;2023-05-20T05:33:21;3.20;;;1.67;;
74791;SDS011;63319;46.046;17.802;2023-05-20T05:36:25;3.17;;;1.70;;
74791;SDS011;63319;46.046;17.802;2023-05-20T05:39:27;3.80;;;1.83;;
74791;SDS011;63319;46.046;17.802;2023-05-20T05:42:30;3.25;;;1.60;;
74791;SDS011;63319;46.046;17.802;2023-05-20T05:45:33;3.13;;;1.65;;
74791;SDS011;63319;46.046;17.802;2023-05-20T05:48:36;3.30;;;1.73;;
74791;SDS011;63319;46.046;17.802;2023-05-20T05:51:39;4.03;;;2.00;;
74791;SDS011;63319;46.046;17.802;2023-05-20T05:54:42;3.90;;;2.10;;
74791;SDS011;63319;46.046;17.802;2023-05-20T05:57:46;3.70;;;2.00;;
74791;SDS011;63319;46.046;17.802;2023-05-20T06:00:50;3.08;;;1.67;;
74791;SDS011;63319;46.046;17.802;2023-05-20T06:03:54;2.92;;;1.63;;
74791;SDS011;63319;46.046;17.802;2023-05-20T06:06:57;2.97;;;1.57;;
74791;SDS011;63319;46.046;17.802;2023-05-20T06:10:00;2.83;;;1.50;;
74791;SDS011;63319;46.046;17.802;2023-05-20T06:13:03;3.80;;;2.13;;
74791;SDS011;63319;46.046;17.802;2023-05-20T06:16:07;3.03;;;1.55;;
74791;SDS011;63319;46.046;17.802;2023-05-20T06:19:10;3.25;;;1.85;;
74791;SDS011;63319;46.046;17.802;2023-05-20T06:22:13;3.40;;;1.87;;
74791;SDS011;63319;46.046;17.802;2023-05-20T06:25:16;3.40;;;1.97;;
74791;SDS011;63319;46.046;17.802;2023-05-20T06:28:20;4.00;;;1.58;;
74791;SDS011;63319;46.046;17.802;2023-05-20T06:31:23;3.65;;;1.90;;
74791;SDS011;63319;46.046;17.802;2023-05-20T06:34:29;3.17;;;1.67;;
74791;SDS011;63319;46.046;17.802;2023-05-20T06:37:32;3.63;;;1.70;;
74791;SDS011;63319;46.046;17.802;2023-05-20T06:40:35;4.07;;;2.10;;
74791;SDS011;63319;46.046;17.802;2023-05-20T06:43:38;3.97;;;2.10;;
74791;SDS011;63319;46.046;17.802;2023-05-20T06:47:08;3.80;;;1.60;;
74791;SDS011;63319;46.046;17.802;2023-05-20T06:50:11;4.38;;;2.13;;
74791;SDS011;63319;46.046;17.802;2023-05-20T06:53:14;2.80;;;1.50;;
74791;SDS011;63319;46.046;17.802;2023-05-20T06:56:17;3.40;;;1.87;;
74791;SDS011;63319;46.046;17.802;2023-05-20T06:59:20;2.97;;;1.60;;
74791;SDS011;63319;46.046;17.802;2023-05-20T07:02:23;3.42;;;2.10;;
74791;SDS011;63319;46.046;17.802;2023-05-20T07:05:30;4.20;;;2.17;;
74791;SDS011;63319;46.046;17.802;2023-05-20T07:08:34;3.73;;;1.83;;
74791;SDS011;63319;46.046;17.802;2023-05-20T07:11:36;4.20;;;1.90;;
74791;SDS011;63319;46.046;17.802;2023-05-20T07:14:45;3.17;;;1.90;;
74791;SDS011;63319;46.046;17.802;2023-05-20T07:17:47;3.53;;;1.70;;
74791;SDS011;63319;46.046;17.802;2023-05-20T07:20:50;3.95;;;2.10;;
74791;SDS011;63319;46.046;17.802;2023-05-20T07:24:06;3.90;;;1.93;;
74791;SDS011;63319;46.046;17.802;2023-05-20T07:27:09;3.63;;;1.87;;
74791;SDS011;63319;46.046;17.802;2023-05-20T07:30:12;4.10;;;2.05;;
74791;SDS011;63319;46.046;17.802;2023-05-20T07:33:18;3.65;;;2.13;;
74791;SDS011;63319;46.046;17.802;2023-05-20T07:36:22;2.88;;;1.77;;
74791;SDS011;63319;46.046;17.802;2023-05-20T07:39:27;3.53;;;2.00;;
74791;SDS011;63319;46.046;17.802;2023-05-20T07:42:30;2.47;;;1.37;;
74791;SDS011;63319;46.046;17.802;2023-05-20T07:45:35;3.85;;;1.83;;
74791;SDS011;63319;46.046;17.802;2023-05-20T07:48:40;3.40;;;1.60;;
74791;SDS011;63319;46.046;17.802;2023-05-20T07:51:43;3.78;;;2.17;;
74791;SDS011;63319;46.046;17.802;2023-05-20T07:54:48;3.43;;;1.80;;
74791;SDS011;63319;46.046;17.802;2023-05-20T07:57:52;3.40;;;1.80;;
74791;SDS011;63319;46.046;17.802;2023-05-20T08:01:07;3.75;;;1.95;;
74791;SDS011;63319;46.046;17.802;2023-05-20T08:04:10;3.70;;;1.98;;
74791;SDS011;63319;46.046;17.802;2023-05-20T08:07:13;3.83;;;1.92;;
74791;SDS011;63319;46.046;17.802;2023-05-20T08:10:25;4.47;;;2.60;;
74791;SDS011;63319;46.046;17.802;2023-05-20T08:13:28;4.37;;;1.90;;
74791;SDS011;63319;46.046;17.802;2023-05-20T08:16:33;4.72;;;1.98;;
74791;SDS011;63319;46.046;17.802;2023-05-20T08:19:35;3.45;;;1.92;;
74791;SDS011;63319;46.046;17.802;2023-05-20T08:22:38;3.08;;;1.40;;
74791;SDS011;63319;46.046;17.802;2023-05-20T08:25:42;3.40;;;1.83;;
74791;SDS011;63319;46.046;17.802;2023-05-20T08:28:48;5.50;;;2.10;;
74791;SDS011;63319;46.046;17.802;2023-05-20T08:31:52;3.00;;;1.67;;
74791;SDS011;63319;46.046;17.802;2023-05-20T08:34:55;3.42;;;1.75;;
74791;SDS011;63319;46.046;17.802;2023-05-20T08:37:58;3.83;;;1.70;;
74791;SDS011;63319;46.046;17.802;2023-05-20T08:41:03;3.50;;;1.90;;
74791;SDS011;63319;46.046;17.802;2023-05-20T08:44:06;4.33;;;1.90;;
74791;SDS011;63319;46.046;17.802;2023-05-20T08:47:13;3.50;;;1.60;;
74791;SDS011;63319;46.046;17.802;2023-05-20T08:50:17;3.50;;;1.90;;
74791;SDS011;63319;46.046;17.802;2023-05-20T08:53:21;3.53;;;1.70;;
74791;SDS011;63319;46.046;17.802;2023-05-20T08:56:24;4.23;;;2.17;;
74791;SDS011;63319;46.046;17.802;2023-05-20T08:59:31;3.60;;;1.90;;
74791;SDS011;63319;46.046;17.802;2023-05-20T09:02:38;3.55;;;2.15;;
74791;SDS011;63319;46.046;17.802;2023-05-20T09:05:41;3.63;;;1.60;;
74791;SDS011;63319;46.046;17.802;2023-05-20T09:08:44;3.60;;;2.10;;
74791;SDS011;63319;46.046;17.802;2023-05-20T09:11:48;3.77;;;2.00;;
74791;SDS011;63319;46.046;17.802;2023-05-20T09:14:50;4.63;;;2.20;;
74791;SDS011;63319;46.046;17.802;2023-05-20T09:17:53;3.97;;;2.28;;
74791;SDS011;63319;46.046;17.802;2023-05-20T09:20:56;3.50;;;1.98;;
74791;SDS011;63319;46.046;17.802;2023-05-20T09:24:00;3.50;;;1.90;;
74791;SDS011;63319;46.046;17.802;2023-05-20T09:27:03;3.47;;;1.90;;
74791;SDS011;63319;46.046;17.802;2023-05-20T09:30:07;4.97;;;2.30;;
74791;SDS011;63319;46.046;17.802;2023-05-20T09:33:14;3.38;;;1.70;;
74791;SDS011;63319;46.046;17.802;2023-05-20T09:36:17;4.15;;;1.92;;
74791;SDS011;63319;46.046;17.802;2023-05-20T09:39:22;4.00;;;2.15;;
74791;SDS011;63319;46.046;17.802;2023-05-20T09:42:29;3.57;;;1.87;;
74791;SDS011;63319;46.046;17.802;2023-05-20T09:45:55;4.73;;;2.20;;
74791;SDS011;63319;46.046;17.802;2023-05-20T09:49:00;3.92;;;2.08;;
74791;SDS011;63319;46.046;17.802;2023-05-20T09:52:04;5.57;;;2.33;;
74791;SDS011;63319;46.046;17.802;2023-05-20T09:55:07;5.20;;;2.30;;
74791;SDS011;63319;46.046;17.802;2023-05-20T09:58:11;3.57;;;1.93;;
74791;SDS011;63319;46.046;17.802;2023-05-20T10:01:17;3.47;;;1.87;;
74791;SDS011;63319;46.046;17.802;2023-05-20T10:04:24;3.97;;;1.70;;
74791;SDS011;63319;46.046;17.802;2023-05-20T10:11:15;3.80;;;2.00;;
74791;SDS011;63319;46.046;17.802;2023-05-20T10:17:54;4.10;;;2.30;;
74791;SDS011;63319;46.046;17.802;2023-05-20T10:21:19;4.05;;;2.22;;
74791;SDS011;63319;46.046;17.802;2023-05-20T10:24:32;3.90;;;2.00;;
74791;SDS011;63319;46.046;17.802;2023-05-20T10:27:43;4.93;;;2.70;;
74791;SDS011;63319;46.046;17.802;2023-05-20T10:30:50;4.03;;;2.40;;
74791;SDS011;63319;46.046;17.802;2023-05-20T10:33:53;4.50;;;2.20;;
74791;SDS011;63319;46.046;17.802;2023-05-20T10:36:56;3.58;;;2.03;;
74791;SDS011;63319;46.046;17.802;2023-05-20T10:43:11;4.20;;;2.17;;
74791;SDS011;63319;46.046;17.802;2023-05-20T10:46:18;4.43;;;2.60;;
74791;SDS011;63319;46.046;17.802;2023-05-20T10:49:40;4.23;;;2.40;;
74791;SDS011;63319;46.046;17.802;2023-05-20T10:52:47;4.65;;;2.42;;
74791;SDS011;63319;46.046;17.802;2023-05-20T10:55:50;4.50;;;2.25;;
74791;SDS011;63319;46.046;17.802;2023-05-20T10:58:54;4.28;;;2.60;;
74791;SDS011;63319;46.046;17.802;2023-05-20T11:01:58;4.40;;;2.20;;
74791;SDS011;63319;46.046;17.802;2023-05-20T11:05:02;5.50;;;2.50;;
74791;SDS011;63319;46.046;17.802;2023-05-20T11:08:06;4.20;;;2.30;;
74791;SDS011;63319;46.046;17.802;2023-05-20T11:11:29;4.70;;;2.42;;
74791;SDS011;63319;46.046;17.802;2023-05-20T11:14:33;5.35;;;2.45;;
74791;SDS011;63319;46.046;17.802;2023-05-20T11:17:37;4.57;;;2.53;;
74791;SDS011;63319;46.046;17.802;2023-05-20T11:20:39;4.83;;;2.40;;
74791;SDS011;63319;46.046;17.802;2023-05-20T11:23:42;5.15;;;2.53;;
74791;SDS011;63319;46.046;17.802;2023-05-20T11:26:45;4.53;;;2.40;;
74791;SDS011;63319;46.046;17.802;2023-05-20T11:29:49;4.55;;;2.47;;
74791;SDS011;63319;46.046;17.802;2023-05-20T11:32:56;5.13;;;2.50;;
74791;SDS011;63319;46.046;17.802;2023-05-20T11:36:05;4.70;;;2.57;;
74791;SDS011;63319;46.046;17.802;2023-05-20T11:39:30;5.45;;;2.67;;
74791;SDS011;63319;46.046;17.802;2023-05-20T11:42:34;4.82;;;2.58;;
74791;SDS011;63319;46.046;17.802;2023-05-20T11:45:38;6.22;;;2.80;;
74791;SDS011;63319;46.046;17.802;2023-05-20T11:48:49;4.83;;;2.43;;
74791;SDS011;63319;46.046;17.802;2023-05-20T11:51:55;4.43;;;2.50;;
74791;SDS011;63319;46.046;17.802;2023-05-20T11:54:59;5.40;;;3.10;;
74791;SDS011;63319;46.046;17.802;2023-05-20T11:58:02;5.07;;;2.17;;
74791;SDS011;63319;46.046;17.802;2023-05-20T12:01:05;5.78;;;2.95;;
74791;SDS011;63319;46.046;17.802;2023-05-20T12:04:23;4.43;;;2.30;;
74791;SDS011;63319;46.046;17.802;2023-05-20T12:07:26;6.27;;;2.80;;
74791;SDS011;63319;46.046;17.802;2023-05-20T12:10:29;4.63;;;2.55;;
74791;SDS011;63319;46.046;17.802;2023-05-20T12:13:32;4.38;;;2.60;;
74791;SDS011;63319;46.046;17.802;2023-05-20T12:16:37;5.00;;;3.10;;
74791;SDS011;63319;46.046;17.802;2023-05-20T12:19:40;5.17;;;2.73;;
74791;SDS011;63319;46.046;17.802;2023-05-20T12:22:43;4.67;;;2.60;;
74791;SDS011;63319;46.046;17.802;2023-05-20T12:25:46;5.78;;;3.28;;
74791;SDS011;63319;46.046;17.802;2023-05-20T12:28:51;4.57;;;2.60;;
74791;SDS011;63319;46.046;17.802;2023-05-20T12:31:54;4.22;;;2.42;;
74791;SDS011;63319;46.046;17.802;2023-05-20T12:34:57;4.70;;;2.80;;
74791;SDS011;63319;46.046;17.802;2023-05-20T12:38:00;4.77;;;3.00;;
74791;SDS011;63319;46.046;17.802;2023-05-20T12:41:03;5.35;;;2.90;;
74791;SDS011;63319;46.046;17.802;2023-05-20T12:44:06;6.50;;;2.90;;
74791;SDS011;63319;46.046;17.802;2023-05-20T12:47:08;5.00;;;3.00;;
74791;SDS011;63319;46.046;17.802;2023-05-20T12:50:11;5.63;;;2.90;;
74791;SDS011;63319;46.046;17.802;2023-05-20T12:53:14;5.03;;;2.80;;
74791;SDS011;63319;46.046;17.802;2023-05-20T12:56:17;5.40;;;3.10;;
74791;SDS011;63319;46.046;17.802;2023-05-20T12:59:20;5.35;;;3.35;;
74791;SDS011;63319;46.046;17.802;2023-05-20T13:02:23;5.30;;;3.30;;
74791;SDS011;63319;46.046;17.802;2023-05-20T13:05:26;4.93;;;2.67;;
74791;SDS011;63319;46.046;17.802;2023-05-20T13:08:29;5.33;;;2.93;;
74791;SDS011;63319;46.046;17.802;2023-05-20T13:11:31;5.00;;;2.60;;
74791;SDS011;63319;46.046;17.802;2023-05-20T13:14:34;5.70;;;3.55;;
74791;SDS011;63319;46.046;17.802;2023-05-20T13:17:37;5.43;;;2.80;;
74791;SDS011;63319;46.046;17.802;2023-05-20T13:20:43;5.20;;;2.93;;
74791;SDS011;63319;46.046;17.802;2023-05-20T13:23:46;5.17;;;2.70;;
74791;SDS011;63319;46.046;17.802;2023-05-20T13:26:49;5.05;;;3.03;;
74791;SDS011;63319;46.046;17.802;2023-05-20T13:29:52;5.07;;;2.88;;
74791;SDS011;63319;46.046;17.802;2023-05-20T13:32:55;5.72;;;3.13;;
74791;SDS011;63319;46.046;17.802;2023-05-20T13:35:57;5.10;;;3.07;;
74791;SDS011;63319;46.046;17.802;2023-05-20T13:39:00;6.63;;;3.40;;
74791;SDS011;63319;46.046;17.802;2023-05-20T13:42:03;6.05;;;3.10;;
74791;SDS011;63319;46.046;17.802;2023-05-20T13:45:06;4.90;;;2.85;;
74791;SDS011;63319;46.046;17.802;2023-05-20T13:48:09;5.50;;;3.00;;
74791;SDS011;63319;46.046;17.802;2023-05-20T13:51:12;5.23;;;2.83;;
74791;SDS011;63319;46.046;17.802;2023-05-20T13:54:15;5.27;;;3.03;;
74791;SDS011;63319;46.046;17.802;2023-05-20T13:57:18;4.93;;;3.00;;
74791;SDS011;63319;46.046;17.802;2023-05-20T14:00:21;5.97;;;3.38;;
74791;SDS011;63319;46.046;17.802;2023-05-20T14:03:24;5.68;;;3.13;;
74791;SDS011;63319;46.046;17.802;2023-05-20T14:06:27;5.97;;;3.17;;
74791;SDS011;63319;46.046;17.802;2023-05-20T14:09:30;5.50;;;3.10;;
74791;SDS011;63319;46.046;17.802;2023-05-20T14:12:34;5.85;;;3.63;;
74791;SDS011;63319;46.046;17.802;2023-05-20T14:15:37;5.07;;;3.03;;
74791;SDS011;63319;46.046;17.802;2023-05-20T14:18:40;5.68;;;3.25;;
74791;SDS011;63319;46.046;17.802;2023-05-20T14:21:43;5.63;;;2.80;;
74791;SDS011;63319;46.046;17.802;2023-05-20T14:24:45;5.00;;;3.00;;
74791;SDS011;63319;46.046;17.802;2023-05-20T14:27:48;5.20;;;3.10;;
74791;SDS011;63319;46.046;17.802;2023-05-20T14:30:51;5.68;;;3.10;;
74791;SDS011;63319;46.046;17.802;2023-05-20T14:33:55;5.78;;;3.42;;
74791;SDS011;63319;46.046;17.802;2023-05-20T14:36:58;9.37;;;3.33;;
74791;SDS011;63319;46.046;17.802;2023-05-20T14:40:06;5.73;;;3.47;;
74791;SDS011;63319;46.046;17.802;2023-05-20T14:43:10;5.45;;;3.05;;
74791;SDS011;63319;46.046;17.802;2023-05-20T14:46:12;6.43;;;3.13;;
74791;SDS011;63319;46.046;17.802;2023-05-20T14:49:15;5.85;;;3.08;;
74791;SDS011;63319;46.046;17.802;2023-05-20T14:52:18;5.57;;;3.43;;
74791;SDS011;63319;46.046;17.802;2023-05-20T14:55:21;6.80;;;3.37;;
74791;SDS011;63319;46.046;17.802;2023-05-20T14:58:23;7.18;;;4.07;;
74791;SDS011;63319;46.046;17.802;2023-05-20T15:01:26;5.22;;;3.17;;
74791;SDS011;63319;46.046;17.802;2023-05-20T15:04:30;6.05;;;2.97;;
74791;SDS011;63319;46.046;17.802;2023-05-20T15:07:32;6.00;;;3.40;;
74791;SDS011;63319;46.046;17.802;2023-05-20T15:10:35;6.27;;;3.93;;
74791;SDS011;63319;46.046;17.802;2023-05-20T15:13:39;5.80;;;3.42;;
74791;SDS011;63319;46.046;17.802;2023-05-20T15:16:41;6.43;;;3.70;;
74791;SDS011;63319;46.046;17.802;2023-05-20T15:19:45;7.57;;;3.28;;
74791;SDS011;63319;46.046;17.802;2023-05-20T15:22:48;6.23;;;3.47;;
74791;SDS011;63319;46.046;17.802;2023-05-20T15:25:52;5.53;;;3.10;;
74791;SDS011;63319;46.046;17.802;2023-05-20T15:28:55;5.90;;;3.20;;
74791;SDS011;63319;46.046;17.802;2023-05-20T15:31:58;6.10;;;3.70;;
74791;SDS011;63319;46.046;17.802;2023-05-20T15:35:01;6.15;;;3.00;;
74791;SDS011;63319;46.046;17.802;2023-05-20T15:38:05;5.60;;;3.13;;
74791;SDS011;63319;46.046;17.802;2023-05-20T15:41:08;5.87;;;3.30;;
74791;SDS011;63319;46.046;17.802;2023-05-20T15:44:13;5.97;;;3.38;;
74791;SDS011;63319;46.046;17.802;2023-05-20T15:47:16;5.80;;;3.40;;
74791;SDS011;63319;46.046;17.802;2023-05-20T15:50:19;6.28;;;3.65;;
74791;SDS011;63319;46.046;17.802;2023-05-20T15:53:21;5.97;;;3.37;;
74791;SDS011;63319;46.046;17.802;2023-05-20T15:56:24;5.40;;;3.37;;
74791;SDS011;63319;46.046;17.802;2023-05-20T15:59:27;5.72;;;3.25;;
74791;SDS011;63319;46.046;17.802;2023-05-20T16:02:30;5.38;;;3.33;;
74791;SDS011;63319;46.046;17.802;2023-05-20T16:05:37;6.45;;;3.20;;
74791;SDS011;63319;46.046;17.802;2023-05-20T16:08:40;5.33;;;3.30;;
74791;SDS011;63319;46.046;17.802;2023-05-20T16:11:43;6.83;;;3.20;;
74791;SDS011;63319;46.046;17.802;2023-05-20T16:14:45;5.25;;;2.97;;
74791;SDS011;63319;46.046;17.802;2023-05-20T16:17:48;5.85;;;3.38;;
74791;SDS011;63319;46.046;17.802;2023-05-20T16:20:51;6.05;;;3.58;;
74791;SDS011;63319;46.046;17.802;2023-05-20T16:23:54;5.77;;;3.50;;
74791;SDS011;63319;46.046;17.802;2023-05-20T16:26:57;5.00;;;2.70;;
74791;SDS011;63319;46.046;17.802;2023-05-20T16:29:59;5.97;;;3.55;;
74791;SDS011;63319;46.046;17.802;2023-05-20T16:33:02;6.38;;;3.80;;
74791;SDS011;63319;46.046;17.802;2023-05-20T16:36:05;5.95;;;3.83;;
74791;SDS011;63319;46.046;17.802;2023-05-20T16:39:08;6.23;;;3.50;;
74791;SDS011;63319;46.046;17.802;2023-05-20T16:42:11;6.30;;;3.73;;
74791;SDS011;63319;46.046;17.802;2023-05-20T16:45:14;5.70;;;3.38;;
74791;SDS011;63319;46.046;17.802;2023-05-20T16:48:17;5.63;;;3.17;;
74791;SDS011;63319;46.046;17.802;2023-05-20T16:51:19;5.90;;;3.47;;
74791;SDS011;63319;46.046;17.802;2023-05-20T16:54:23;5.70;;;3.40;;
74791;SDS011;63319;46.046;17.802;2023-05-20T16:57:25;5.03;;;3.10;;
74791;SDS011;63319;46.046;17.802;2023-05-20T17:00:29;5.90;;;3.15;;
74791;SDS011;63319;46.046;17.802;2023-05-20T17:03:34;6.18;;;3.53;;
74791;SDS011;63319;46.046;17.802;2023-05-20T17:06:38;5.32;;;3.10;;
74791;SDS011;63319;46.046;17.802;2023-05-20T17:09:41;5.63;;;3.43;;
74791;SDS011;63319;46.046;17.802;2023-05-20T17:12:44;5.70;;;3.53;;
74791;SDS011;63319;46.046;17.802;2023-05-20T17:15:47;6.18;;;3.70;;
74791;SDS011;63319;46.046;17.802;2023-05-20T17:18:49;6.15;;;3.17;;
74791;SDS011;63319;46.046;17.802;2023-05-20T17:21:52;6.20;;;3.05;;
74791;SDS011;63319;46.046;17.802;2023-05-20T17:24:55;5.57;;;3.17;;
74791;SDS011;63319;46.046;17.802;2023-05-20T17:27:58;6.43;;;3.27;;
74791;SDS011;63319;46.046;17.802;2023-05-20T17:31:03;6.25;;;3.70;;
74791;SDS011;63319;46.046;17.802;2023-05-20T17:34:05;6.70;;;3.28;;
74791;SDS011;63319;46.046;17.802;2023-05-20T17:37:09;5.20;;;3.03;;
74791;SDS011;63319;46.046;17.802;2023-05-20T17:40:12;5.47;;;3.17;;
74791;SDS011;63319;46.046;17.802;2023-05-20T17:43:18;5.80;;;3.30;;
74791;SDS011;63319;46.046;17.802;2023-05-20T17:46:23;5.50;;;3.30;;
74791;SDS011;63319;46.046;17.802;2023-05-20T17:49:26;6.65;;;3.67;;
74791;SDS011;63319;46.046;17.802;2023-05-20T17:52:28;6.13;;;3.83;;
74791;SDS011;63319;46.046;17.802;2023-05-20T17:55:31;5.60;;;3.27;;
74791;SDS011;63319;46.046;17.802;2023-05-20T17:58:37;5.53;;;3.00;;
74791;SDS011;63319;46.046;17.802;2023-05-20T18:01:40;6.25;;;3.20;;
74791;SDS011;63319;46.046;17.802;2023-05-20T18:04:43;5.78;;;3.42;;
74791;SDS011;63319;46.046;17.802;2023-05-20T18:07:46;6.38;;;3.72;;
74791;SDS011;63319;46.046;17.802;2023-05-20T18:10:49;5.17;;;3.00;;
74791;SDS011;63319;46.046;17.802;2023-05-20T18:13:51;6.70;;;3.40;;
74791;SDS011;63319;46.046;17.802;2023-05-20T18:16:54;5.75;;;3.55;;
74791;SDS011;63319;46.046;17.802;2023-05-20T18:19:58;5.95;;;3.42;;
74791;SDS011;63319;46.046;17.802;2023-05-20T18:23:02;6.18;;;3.40;;